createdAt,value
2022-11-05T00:00:35.432Z,91281.25
2022-11-05T00:03:20.607Z,91278.50
2022-11-05T00:06:06.157Z,91274.56
2022-11-05T00:08:51.167Z,91269.91
2022-11-05T00:11:18.584Z,91276.34
2022-11-05T00:14:04.256Z,91264.81
2022-11-05T00:16:45.834Z,91263.72
2022-11-05T00:19:13.550Z,91267.94
2022-11-05T00:21:58.832Z,91263.81
2022-11-05T00:24:44.270Z,91267.09
2022-11-05T00:27:10.966Z,91269.88
2022-11-05T00:29:37.647Z,91274.94
2022-11-05T00:32:04.416Z,91269.78
2022-11-05T00:34:31.063Z,91271.78
2022-11-05T00:36:57.744Z,91269.13
2022-11-05T00:39:24.811Z,91269.31
2022-11-05T00:42:11.407Z,91262.94
2022-11-05T00:44:56.352Z,91274.28
2022-11-05T00:47:41.625Z,91273.13
2022-11-05T00:50:10.659Z,91273.56
2022-11-05T00:52:55.903Z,91268.91
2022-11-05T00:55:26.289Z,91260.44
2022-11-05T00:57:52.982Z,91257.75
2022-11-05T01:00:19.822Z,91253.31
2022-11-05T01:02:46.568Z,91253.59
2022-11-05T01:05:13.737Z,91251.88
2022-11-05T01:07:40.509Z,91250.63
2022-11-05T01:10:07.380Z,91251.03
2022-11-05T01:12:34.302Z,91246.75
2022-11-05T01:15:00.958Z,91243.25
2022-11-05T01:17:27.677Z,91234.34
2022-11-05T01:19:54.327Z,91237.06
2022-11-05T01:22:20.877Z,91224.66
2022-11-05T01:24:47.476Z,91223.06
2022-11-05T01:27:14.115Z,91223.09
2022-11-05T01:29:41.753Z,91229.19
2022-11-05T01:32:08.540Z,91224.59
2022-11-05T01:34:35.145Z,91207.28
2022-11-05T01:37:01.845Z,91200.41
2022-11-05T01:39:29.610Z,91200.28
2022-11-05T01:41:56.317Z,91190.25
2022-11-05T01:44:49.911Z,91185.50
2022-11-05T01:47:31.883Z,91188.09
2022-11-05T01:50:00.115Z,91181.28
2022-11-05T01:52:27.208Z,91172.44
2022-11-05T01:54:53.797Z,91178.47
2022-11-05T01:57:20.486Z,91175.31
2022-11-05T01:59:50.176Z,91169.44
2022-11-05T02:02:16.863Z,91164.56
2022-11-05T02:05:00.223Z,91156.38
2022-11-05T02:07:27.104Z,91155.66
2022-11-05T02:10:03.340Z,91153.38
2022-11-05T02:12:30.119Z,91154.53
2022-11-05T02:14:57.212Z,91152.94
2022-11-05T02:17:41.812Z,91147.53
2022-11-05T02:20:10.311Z,91137.91
2022-11-05T02:23:14.922Z,91140.56
2022-11-05T02:25:57.771Z,91138.41
2022-11-05T02:28:55.351Z,91140.38
2022-11-05T02:32:03.254Z,91131.38
2022-11-05T02:34:37.400Z,91139.91
2022-11-05T02:37:22.547Z,91140.03
2022-11-05T02:40:02.424Z,91144.56
2022-11-05T02:42:34.827Z,91145.88
2022-11-05T02:45:26.591Z,91144.34
2022-11-05T02:47:58.953Z,91151.66
2022-11-05T02:50:57.215Z,91147.53
2022-11-05T02:54:02.132Z,91159.78
2022-11-05T02:56:33.968Z,91155.03
2022-11-05T02:59:00.633Z,91159.56
2022-11-05T03:01:27.299Z,91152.25
2022-11-05T03:03:58.369Z,91153.91
2022-11-05T03:07:06.976Z,91153.75
2022-11-05T03:09:59.381Z,91149.91
2022-11-05T03:12:31.792Z,91158.22
2022-11-05T03:14:58.362Z,91153.78
2022-11-05T03:17:27.689Z,91157.91
2022-11-05T03:20:12.710Z,91160.56
2022-11-05T03:22:42.617Z,91171.03
2022-11-05T03:25:12.518Z,91166.38
2022-11-05T03:27:39.969Z,91158.22
2022-11-05T03:30:08.024Z,91160.06
2022-11-05T03:32:38.567Z,91155.81
2022-11-05T03:35:16.686Z,91156.25
2022-11-05T03:37:43.450Z,91151.16
2022-11-05T03:40:10.390Z,91159.47
2022-11-05T03:42:37.736Z,91163.69
2022-11-05T03:45:25.791Z,91163.44
2022-11-05T03:47:52.792Z,91172.28
2022-11-05T03:50:27.533Z,91171.66
2022-11-05T03:52:57.447Z,91176.28
2022-11-05T03:55:26.356Z,91183.53
2022-11-05T03:57:53.991Z,91184.06
2022-11-05T04:00:21.138Z,91192.91
2022-11-05T04:02:47.932Z,91185.69
2022-11-05T04:05:15.914Z,91183.09
2022-11-05T04:08:02.055Z,91186.09
2022-11-05T04:10:47.154Z,91183.91
2022-11-05T04:13:25.845Z,91190.41
2022-11-05T04:16:12.141Z,91184.59
2022-11-05T04:18:38.833Z,91184.38
2022-11-05T04:21:24.406Z,91200.75
2022-11-05T04:24:09.506Z,91196.94
2022-11-05T04:26:40.867Z,91202.03
2022-11-05T04:29:25.927Z,91199.53
2022-11-05T04:31:52.695Z,91195.94
2022-11-05T04:34:19.267Z,91208.91
2022-11-05T04:36:46.434Z,91211.13
2022-11-05T04:39:13.033Z,91217.09
2022-11-05T04:41:39.722Z,91217.00
2022-11-05T04:44:06.345Z,91209.53
2022-11-05T04:46:32.962Z,91215.25
2022-11-05T04:48:59.580Z,91210.81
2022-11-05T04:51:27.237Z,91219.81
2022-11-05T04:53:54.109Z,91216.53
2022-11-05T04:56:22.490Z,91204.09
2022-11-05T04:58:49.190Z,91202.50
2022-11-05T05:01:17.420Z,91206.19
2022-11-05T05:03:44.213Z,91213.28
2022-11-05T05:06:10.884Z,91219.06
2022-11-05T05:08:37.479Z,91209.19
2022-11-05T05:11:08.426Z,91213.47
2022-11-05T05:13:35.136Z,91222.66
2022-11-05T05:16:08.690Z,91210.72
2022-11-05T05:18:35.529Z,91210.13
2022-11-05T05:21:20.577Z,91216.97
2022-11-05T05:23:48.270Z,91218.38
2022-11-05T05:26:15.901Z,91230.69
2022-11-05T05:28:42.551Z,91224.88
2022-11-05T05:31:09.341Z,91233.38
2022-11-05T05:33:36.084Z,91232.78
2022-11-05T05:36:06.985Z,91239.38
2022-11-05T05:38:36.774Z,91234.13
2022-11-05T05:41:03.473Z,91236.88
2022-11-05T05:43:31.275Z,91242.31
2022-11-05T05:46:01.878Z,91248.50
2022-11-05T05:48:28.529Z,91242.06
2022-11-05T05:50:55.196Z,91252.41
2022-11-05T05:53:21.852Z,91239.19
2022-11-05T05:55:48.419Z,91253.66
2022-11-05T05:58:15.013Z,91258.44
2022-11-05T06:00:42.195Z,91256.91
2022-11-05T06:03:09.190Z,91257.69
2022-11-05T06:05:37.190Z,91254.88
2022-11-05T06:08:03.912Z,91262.66
2022-11-05T06:10:30.691Z,91264.69
2022-11-05T06:12:59.791Z,91253.94
2022-11-05T06:15:28.484Z,91249.06
2022-11-05T06:17:58.412Z,91263.09
2022-11-05T06:20:25.031Z,91263.13
2022-11-05T06:22:57.736Z,91268.50
2022-11-05T06:25:24.896Z,91271.72
2022-11-05T06:27:51.603Z,91269.91
2022-11-05T06:30:18.264Z,91262.72
2022-11-05T06:32:45.041Z,91256.84
2022-11-05T06:35:11.669Z,91258.16
2022-11-05T06:37:38.314Z,91264.81
2022-11-05T06:40:05.617Z,91259.13
2022-11-05T06:42:32.321Z,91257.31
2022-11-05T06:44:59.005Z,91258.50
2022-11-05T06:47:25.728Z,91249.19
2022-11-05T06:49:52.435Z,91241.28
2022-11-05T06:52:19.146Z,91241.16
2022-11-05T06:54:45.737Z,91252.28
2022-11-05T06:57:12.681Z,91232.22
2022-11-05T06:59:39.480Z,91237.94
2022-11-05T07:02:06.799Z,91242.06
2022-11-05T07:04:33.742Z,91227.69
2022-11-05T07:07:01.018Z,91237.13
2022-11-05T07:09:28.337Z,91238.28
2022-11-05T07:11:55.461Z,91230.47
2022-11-05T07:14:22.087Z,91223.84
2022-11-05T07:16:48.823Z,91222.94
2022-11-05T07:19:15.518Z,91236.19
2022-11-05T07:21:42.646Z,91218.44
2022-11-05T07:24:09.262Z,91219.78
2022-11-05T07:26:35.931Z,91226.41
2022-11-05T07:29:02.566Z,91216.59
2022-11-05T07:31:29.158Z,91217.28
2022-11-05T07:33:55.818Z,91220.34
2022-11-05T07:36:22.450Z,91227.25
2022-11-05T07:38:49.074Z,91214.88
2022-11-05T07:41:15.702Z,91210.56
2022-11-05T07:43:42.341Z,91204.97
2022-11-05T07:46:13.694Z,91209.13
2022-11-05T07:48:41.024Z,91209.13
2022-11-05T07:51:07.724Z,91201.22
2022-11-05T07:53:34.347Z,91200.16
2022-11-05T07:56:00.913Z,91209.03
2022-11-05T07:58:27.651Z,91206.38
2022-11-05T08:00:54.511Z,91209.28
2022-11-05T08:03:21.632Z,91199.66
2022-11-05T08:05:48.697Z,91200.69
2022-11-05T08:08:16.746Z,91202.00
2022-11-05T08:10:43.374Z,91206.34
2022-11-05T08:13:11.747Z,91199.56
2022-11-05T08:15:38.889Z,91185.78
2022-11-05T08:18:07.359Z,91181.72
2022-11-05T08:20:34.434Z,91194.50
2022-11-05T08:23:01.150Z,91193.91
2022-11-05T08:25:27.889Z,91185.75
2022-11-05T08:27:58.498Z,91191.13
2022-11-05T08:30:25.205Z,91174.38
2022-11-05T08:32:52.007Z,91174.84
2022-11-05T08:35:20.088Z,91180.63
2022-11-05T08:37:46.786Z,91172.22
2022-11-05T08:40:13.353Z,91177.94
2022-11-05T08:42:39.962Z,91163.31
2022-11-05T08:45:07.180Z,91168.72
2022-11-05T08:47:33.851Z,91168.06
2022-11-05T08:50:00.431Z,91164.63
2022-11-05T08:52:27.069Z,91167.88
2022-11-05T08:54:53.756Z,91158.47
2022-11-05T08:57:20.482Z,91152.88
2022-11-05T08:59:47.132Z,91156.00
2022-11-05T09:02:13.888Z,91157.88
2022-11-05T09:04:40.628Z,91159.19
2022-11-05T09:07:07.938Z,91160.34
2022-11-05T09:09:34.606Z,91164.72
2022-11-05T09:12:16.389Z,91157.69
2022-11-05T09:14:43.032Z,91150.59
2022-11-05T09:17:19.545Z,91146.56
2022-11-05T09:19:47.542Z,91148.94
2022-11-05T09:22:14.118Z,91141.19
2022-11-05T09:24:41.017Z,91154.00
2022-11-05T09:27:10.763Z,91146.25
2022-11-05T09:29:37.721Z,91147.44
2022-11-05T09:32:04.389Z,91133.97
2022-11-05T09:34:31.005Z,91136.28
2022-11-05T09:36:57.677Z,91136.69
2022-11-05T09:39:24.451Z,91125.25
2022-11-05T09:41:52.385Z,91126.06
2022-11-05T09:44:21.505Z,91124.66
2022-11-05T09:46:49.684Z,91121.59
2022-11-05T09:49:25.692Z,91123.44
2022-11-05T09:51:53.134Z,91121.53
2022-11-05T09:54:21.143Z,91117.00
2022-11-05T09:56:48.065Z,91121.19
2022-11-05T09:59:18.252Z,91115.00
2022-11-05T10:01:45.237Z,91109.94
2022-11-05T10:04:19.971Z,91113.63
2022-11-05T10:06:52.398Z,91113.34
2022-11-05T10:09:31.398Z,91108.13
2022-11-05T10:12:13.808Z,91113.31
2022-11-05T10:14:47.230Z,91111.84
2022-11-05T10:17:18.393Z,91105.06
2022-11-05T10:20:01.121Z,91102.81
2022-11-05T10:22:27.708Z,91105.25
2022-11-05T10:24:54.376Z,91099.94
2022-11-05T10:27:32.243Z,91104.09
2022-11-05T10:29:58.835Z,91101.09
2022-11-05T10:32:34.712Z,91093.13
2022-11-05T10:35:02.675Z,91093.97
2022-11-05T10:37:29.444Z,91086.28
2022-11-05T10:39:56.100Z,91080.56
2022-11-05T10:42:47.618Z,91081.66
2022-11-05T10:45:25.713Z,91086.38
2022-11-05T10:48:09.158Z,91077.00
2022-11-05T10:50:35.799Z,91077.69
2022-11-05T10:53:15.089Z,91078.84
2022-11-05T10:55:44.150Z,91072.63
2022-11-05T10:58:23.039Z,91069.66
2022-11-05T11:00:49.704Z,91061.31
2022-11-05T11:03:37.585Z,91071.91
2022-11-05T11:06:25.005Z,91072.19
2022-11-05T11:08:52.562Z,91071.66
2022-11-05T11:11:35.995Z,91057.22
2022-11-05T11:14:11.707Z,91056.63
2022-11-05T11:16:42.868Z,91054.16
2022-11-05T11:19:24.028Z,91052.47
2022-11-05T11:22:02.901Z,91064.91
2022-11-05T11:24:33.489Z,91064.06
2022-11-05T11:27:05.526Z,91065.97
2022-11-05T11:29:36.037Z,91066.25
2022-11-05T11:32:02.720Z,91058.84
2022-11-05T11:34:31.454Z,91066.66
2022-11-05T11:37:23.221Z,91069.09
2022-11-05T11:39:53.453Z,91059.91
2022-11-05T11:42:28.298Z,91063.81
2022-11-05T11:44:54.964Z,91064.19
2022-11-05T11:47:21.753Z,91065.94
2022-11-05T11:49:53.490Z,91075.47
2022-11-05T11:52:31.018Z,91080.72
2022-11-05T11:55:09.487Z,91081.16
2022-11-05T11:57:43.505Z,91079.66
2022-11-05T12:00:10.455Z,91076.41
2022-11-05T12:03:04.676Z,91070.09
2022-11-05T12:05:31.284Z,91067.22
2022-11-05T12:08:07.904Z,91069.75
2022-11-05T12:10:37.725Z,91070.13
2022-11-05T12:13:19.184Z,91068.75
2022-11-05T12:15:56.791Z,91072.94
2022-11-05T12:18:43.571Z,91068.63
2022-11-05T12:21:34.612Z,91070.34
2022-11-05T12:24:42.034Z,91072.91
2022-11-05T12:27:22.445Z,91076.84
2022-11-05T12:30:10.731Z,91071.22
2022-11-05T12:32:48.322Z,91078.69
2022-11-05T12:35:27.223Z,91079.75
2022-11-05T12:38:10.782Z,91076.63
2022-11-05T12:40:47.026Z,91066.03
2022-11-05T12:43:23.402Z,91086.19
2022-11-05T12:46:19.058Z,91088.16
2022-11-05T12:48:48.530Z,91080.84
2022-11-05T12:51:38.289Z,91084.19
2022-11-05T12:54:26.922Z,91084.88
2022-11-05T12:56:54.409Z,91083.94
2022-11-05T12:59:35.903Z,91082.94
2022-11-05T13:02:08.547Z,91073.22
2022-11-05T13:04:43.603Z,91086.84
2022-11-05T13:07:12.952Z,91083.22
2022-11-05T13:10:04.144Z,91093.28
2022-11-05T13:12:32.026Z,91082.06
2022-11-05T13:15:01.327Z,91078.28
2022-11-05T13:17:46.205Z,91081.28
2022-11-05T13:20:19.743Z,91085.69
2022-11-05T13:22:52.664Z,91087.41
2022-11-05T13:25:25.448Z,91088.69
2022-11-05T13:28:25.581Z,91088.81
2022-11-05T13:30:53.913Z,91090.72
2022-11-05T13:33:37.807Z,91094.25
2022-11-05T13:36:49.355Z,91094.81
2022-11-05T13:39:29.589Z,91093.56
2022-11-05T13:42:31.251Z,91094.00
2022-11-05T13:45:00.745Z,91086.94
2022-11-05T13:47:34.529Z,91092.31
2022-11-05T13:50:39.982Z,91092.19
2022-11-05T13:53:15.606Z,91094.97
2022-11-05T13:55:59.650Z,91091.53
2022-11-05T13:58:38.052Z,91084.50
2022-11-05T14:01:13.807Z,91093.22
2022-11-05T14:03:46.549Z,91090.06
2022-11-05T14:06:13.121Z,91088.91
2022-11-05T14:08:45.623Z,91096.28
2022-11-05T14:11:18.000Z,91095.06
2022-11-05T14:13:44.740Z,91088.59
2022-11-05T14:16:21.259Z,91100.81
2022-11-05T14:18:52.874Z,91108.72
2022-11-05T14:21:25.531Z,91106.13
2022-11-05T14:24:19.508Z,91097.44
2022-11-05T14:27:02.735Z,91096.22
2022-11-05T14:29:41.548Z,91092.47
2022-11-05T14:32:16.968Z,91095.09
2022-11-05T14:35:04.987Z,91107.22
2022-11-05T14:37:41.823Z,91103.31
2022-11-05T14:40:27.295Z,91105.13
2022-11-05T14:42:58.606Z,91105.69
2022-11-05T14:45:34.619Z,91104.16
2022-11-05T14:48:03.144Z,91100.94
2022-11-05T14:50:38.578Z,91098.78
2022-11-05T14:53:30.773Z,91097.84
2022-11-05T14:56:03.871Z,91091.84
2022-11-05T14:58:35.604Z,91086.41
2022-11-05T15:01:07.241Z,91101.50
2022-11-05T15:03:41.077Z,91096.25
2022-11-05T15:06:28.908Z,91096.38
2022-11-05T15:09:07.445Z,91102.47
2022-11-05T15:11:52.499Z,91091.94
2022-11-05T15:14:33.780Z,91091.22
2022-11-05T15:17:14.422Z,91098.84
2022-11-05T15:19:41.578Z,91098.69
2022-11-05T15:22:28.161Z,91097.50
2022-11-05T15:24:55.198Z,91096.19
2022-11-05T15:27:21.704Z,91094.03
2022-11-05T15:29:48.319Z,91103.53
2022-11-05T15:32:18.734Z,91104.06
2022-11-05T15:34:55.585Z,91105.28
2022-11-05T15:37:24.673Z,91110.34
2022-11-05T15:39:52.483Z,91110.75
2022-11-05T15:42:25.977Z,91109.78
2022-11-05T15:44:59.277Z,91114.03
2022-11-05T15:47:35.236Z,91102.66
2022-11-05T15:50:14.810Z,91110.31
2022-11-05T15:52:52.117Z,91100.19
2022-11-05T15:55:24.469Z,91116.03
2022-11-05T15:57:57.158Z,91118.44
2022-11-05T16:00:25.853Z,91121.47
2022-11-05T16:03:06.478Z,91116.13
2022-11-05T16:05:40.500Z,91130.63
2022-11-05T16:08:12.142Z,91122.34
2022-11-05T16:10:38.767Z,91121.72
2022-11-05T16:13:37.138Z,91125.97
2022-11-05T16:16:06.061Z,91138.78
2022-11-05T16:18:38.582Z,91136.59
2022-11-05T16:21:12.442Z,91131.13
2022-11-05T16:23:41.434Z,91122.59
2022-11-05T16:27:01.083Z,91139.16
2022-11-05T16:29:23.747Z,91133.06
2022-11-05T16:31:51.398Z,91129.59
2022-11-05T16:34:27.494Z,91139.34
2022-11-05T16:36:55.733Z,91142.59
2022-11-05T16:39:22.374Z,91142.53
2022-11-05T16:41:49.385Z,91144.69
2022-11-05T16:44:16.003Z,91141.34
2022-11-05T16:46:44.549Z,91142.97
2022-11-05T16:49:12.014Z,91147.53
2022-11-05T16:51:38.777Z,91145.00
2022-11-05T16:54:05.447Z,91132.13
2022-11-05T16:56:32.225Z,91136.00
2022-11-05T16:58:58.885Z,91125.06
2022-11-05T17:01:25.635Z,91128.28
2022-11-05T17:03:52.634Z,91135.09
2022-11-05T17:06:20.087Z,91147.72
2022-11-05T17:08:47.167Z,91155.06
2022-11-05T17:11:18.438Z,91141.69
2022-11-05T17:13:45.317Z,91141.19
2022-11-05T17:16:13.436Z,91163.09
2022-11-05T17:18:40.442Z,91136.13
2022-11-05T17:21:07.576Z,91137.22
2022-11-05T17:23:34.471Z,91147.69
2022-11-05T17:26:02.651Z,91144.47
2022-11-05T17:28:29.454Z,91145.19
2022-11-05T17:30:58.786Z,91147.72
2022-11-05T17:33:25.494Z,91148.81
2022-11-05T17:35:52.422Z,91147.97
2022-11-05T17:38:19.102Z,91150.59
2022-11-05T17:40:45.722Z,91138.91
2022-11-05T17:43:12.648Z,91140.44
2022-11-05T17:45:43.718Z,91155.47
2022-11-05T17:48:10.572Z,91149.94
2022-11-05T17:50:41.877Z,91145.94
2022-11-05T17:53:08.603Z,91145.22
2022-11-05T17:55:35.461Z,91146.88
2022-11-05T17:58:02.048Z,91137.03
2022-11-05T18:00:28.798Z,91140.41
2022-11-05T18:02:55.477Z,91137.22
2022-11-05T18:05:22.525Z,91151.34
2022-11-05T18:07:49.586Z,91141.28
2022-11-05T18:10:16.372Z,91143.59
2022-11-05T18:12:43.406Z,91144.13
2022-11-05T18:15:10.237Z,91133.34
2022-11-05T18:17:36.918Z,91130.16
2022-11-05T18:20:04.827Z,91138.44
2022-11-05T18:22:31.423Z,91142.88
2022-11-05T18:24:58.075Z,91133.34
2022-11-05T18:27:27.541Z,91124.31
2022-11-05T18:29:54.725Z,91122.22
2022-11-05T18:32:21.323Z,91134.53
2022-11-05T18:34:48.204Z,91122.03
2022-11-05T18:37:14.903Z,91134.34
2022-11-05T18:39:41.594Z,91126.94
2022-11-05T18:42:08.227Z,91126.00
2022-11-05T18:44:38.930Z,91108.56
2022-11-05T18:47:06.889Z,91118.34
2022-11-05T18:49:33.701Z,91121.69
2022-11-05T18:52:00.286Z,91116.22
2022-11-05T18:54:27.020Z,91115.22
2022-11-05T18:56:53.834Z,91119.31
2022-11-05T18:59:38.611Z,91115.59
2022-11-05T19:02:05.802Z,91123.44
2022-11-05T19:04:32.862Z,91120.09
2022-11-05T19:07:04.340Z,91112.31
2022-11-05T19:09:31.642Z,91123.38
2022-11-05T19:11:58.269Z,91115.38
2022-11-05T19:14:24.913Z,91109.97
2022-11-05T19:16:51.569Z,91117.03
2022-11-05T19:19:18.258Z,91123.81
2022-11-05T19:21:44.987Z,91114.66
2022-11-05T19:24:16.721Z,91117.94
2022-11-05T19:26:43.854Z,91115.06
2022-11-05T19:29:10.602Z,91126.28
2022-11-05T19:31:37.248Z,91122.56
2022-11-05T19:34:05.380Z,91128.97
2022-11-05T19:36:32.125Z,91124.00
2022-11-05T19:39:00.650Z,91117.31
2022-11-05T19:41:27.387Z,91113.22
2022-11-05T19:43:54.914Z,91119.16
2022-11-05T19:46:22.593Z,91123.00
2022-11-05T19:48:49.361Z,91124.84
2022-11-05T19:51:26.488Z,91123.72
2022-11-05T19:53:53.690Z,91121.78
2022-11-05T19:56:24.932Z,91134.72
2022-11-05T19:58:53.130Z,91129.09
2022-11-05T20:01:20.344Z,91125.25
2022-11-05T20:03:47.223Z,91132.03
2022-11-05T20:06:23.106Z,91134.44
2022-11-05T20:11:37.785Z,91133.06
2022-11-05T20:14:07.696Z,91140.94
2022-11-05T20:16:39.139Z,91131.53
2022-11-05T20:19:16.531Z,91138.97
2022-11-05T20:21:43.692Z,91140.63
2022-11-05T20:24:17.458Z,91132.53
2022-11-05T20:26:48.934Z,91138.06
2022-11-05T20:29:15.616Z,91142.97
2022-11-05T20:31:42.242Z,91130.38
2022-11-05T20:34:09.007Z,91128.84
2022-11-05T20:36:35.585Z,91125.28
2022-11-05T20:39:05.780Z,91120.19
2022-11-05T20:41:33.265Z,91132.19
2022-11-05T20:43:59.864Z,91129.09
2022-11-05T20:46:26.534Z,91137.88
2022-11-05T20:48:53.994Z,91133.06
2022-11-05T20:51:21.724Z,91131.91
2022-11-05T20:53:48.793Z,91135.16
2022-11-05T20:56:16.901Z,91130.84
2022-11-05T20:58:44.101Z,91131.09
2022-11-05T21:01:11.495Z,91129.06
2022-11-05T21:03:38.286Z,91137.78
2022-11-05T21:06:06.374Z,91139.09
2022-11-05T21:08:33.500Z,91142.19
2022-11-05T21:11:00.246Z,91142.53
2022-11-05T21:13:27.065Z,91138.31
2022-11-05T21:15:55.441Z,91135.00
2022-11-05T21:18:23.494Z,91148.03
2022-11-05T21:20:50.327Z,91141.72
2022-11-05T21:23:16.987Z,91129.94
2022-11-05T21:25:43.749Z,91132.34
2022-11-05T21:28:11.331Z,91134.34
2022-11-05T21:30:39.243Z,91133.13
2022-11-05T21:33:05.905Z,91139.31
2022-11-05T21:35:32.548Z,91137.03
2022-11-05T21:37:59.139Z,91133.75
2022-11-05T21:40:25.864Z,91138.16
2022-11-05T21:42:52.818Z,91149.50
2022-11-05T21:45:19.470Z,91146.38
2022-11-05T21:47:46.109Z,91145.72
2022-11-05T21:50:12.745Z,91145.25
2022-11-05T21:52:57.950Z,91144.81
2022-11-05T21:55:43.313Z,91139.72
2022-11-05T21:58:33.658Z,91135.28
2022-11-05T22:01:00.556Z,91137.72
2022-11-05T22:03:27.322Z,91134.97
2022-11-05T22:05:54.231Z,91139.25
2022-11-05T22:08:20.833Z,91134.41
2022-11-05T22:10:47.481Z,91138.84
2022-11-05T22:13:14.132Z,91142.34
2022-11-05T22:15:40.829Z,91140.03
2022-11-05T22:18:07.510Z,91137.03
2022-11-05T22:20:34.146Z,91147.81
2022-11-05T22:23:00.764Z,91153.09
2022-11-05T22:25:27.489Z,91154.94
2022-11-05T22:27:54.196Z,91149.00
2022-11-05T22:30:20.750Z,91166.97
2022-11-05T22:32:47.482Z,91153.50
2022-11-05T22:35:14.146Z,91160.00
2022-11-05T22:37:40.841Z,91154.66
2022-11-05T22:40:07.853Z,91135.22
2022-11-05T22:42:34.611Z,91133.41
2022-11-05T22:45:01.358Z,91144.84
2022-11-05T22:47:27.990Z,91150.25
2022-11-05T22:49:54.605Z,91153.75
2022-11-05T22:52:21.220Z,91150.59
2022-11-05T22:54:47.908Z,91149.72
2022-11-05T22:57:14.605Z,91150.50
2022-11-05T22:59:41.242Z,91148.13
2022-11-05T23:02:10.016Z,91155.88
2022-11-05T23:04:37.247Z,91152.19
2022-11-05T23:07:27.250Z,91140.91
2022-11-05T23:10:12.919Z,91151.63
2022-11-05T23:12:39.589Z,91146.09
2022-11-05T23:15:07.295Z,91149.13
2022-11-05T23:17:52.217Z,91124.16
2022-11-05T23:20:39.185Z,91120.44
2022-11-05T23:23:30.576Z,91122.34
2022-11-05T23:26:20.609Z,91131.63
2022-11-05T23:28:47.202Z,91127.59
2022-11-05T23:31:32.314Z,91133.13
2022-11-05T23:33:58.881Z,91119.03
2022-11-05T23:36:44.117Z,91120.75
2022-11-05T23:39:10.959Z,91130.69
2022-11-05T23:41:56.050Z,91151.66
2022-11-05T23:44:40.939Z,91126.94
2022-11-05T23:47:26.371Z,91125.34
2022-11-05T23:49:53.074Z,91128.31
2022-11-05T23:52:19.631Z,91127.09
2022-11-05T23:54:46.816Z,91126.34
2022-11-05T23:57:13.721Z,91130.06
2022-11-05T23:59:40.381Z,91142.53
